Time;durP1;ratioP1;P1;durP2;ratioP2;P2;SDS_P1;SDS_P2;PMS_P1;PMS_P2;Temp;Humidity;BMP_temperature;BMP_pressure;BME280_temperature;BME280_humidity;BME280_pressure;Samples;Min_cycle;Max_cycle;Signal;HPM_P1;HPM_P2
2022/07/10 00:00:53;;;;;;;6.23;5.73;;;17.90;99.90;;;;;;6061596;23;20472;-91
2022/07/10 00:03:20;;;;;;;5.90;5.50;;;17.90;99.90;;;;;;6065389;23;20454;-90
2022/07/10 00:05:49;;;;;;;6.13;5.53;;;17.80;99.90;;;;;;6063357;23;20450;-91
2022/07/10 00:08:16;;;;;;;6.67;6.17;;;17.90;99.90;;;;;;6061508;23;20933;-91
2022/07/10 00:10:43;;;;;;;5.67;5.27;;;17.90;99.90;;;;;;6062897;23;20825;-90
2022/07/10 00:13:12;;;;;;;5.80;5.30;;;17.90;99.90;;;;;;6065270;23;20533;-91
2022/07/10 00:15:39;;;;;;;6.27;5.30;;;17.90;99.90;;;;;;6066464;23;20442;-91
2022/07/10 00:18:06;;;;;;;6.03;5.53;;;18.00;99.90;;;;;;6064593;23;20920;-91
2022/07/10 00:20:34;;;;;;;6.13;5.73;;;17.90;99.90;;;;;;6054167;23;20992;-92
2022/07/10 00:23:01;;;;;;;6.17;5.73;;;17.90;99.90;;;;;;6061533;23;20458;-91
2022/07/10 00:25:28;;;;;;;6.17;5.67;;;17.90;99.90;;;;;;6056905;23;20531;-92
2022/07/10 00:27:56;;;;;;;5.67;5.27;;;17.90;99.90;;;;;;6065874;23;20513;-91
2022/07/10 00:30:25;;;;;;;6.03;5.63;;;17.80;99.90;;;;;;6060979;23;20492;-91
2022/07/10 00:32:52;;;;;;;6.13;5.70;;;17.80;99.90;;;;;;6059503;23;20442;-91
2022/07/10 00:35:19;;;;;;;6.40;5.97;;;17.80;99.90;;;;;;6058570;23;20438;-91
2022/07/10 00:37:47;;;;;;;5.80;5.40;;;17.80;99.90;;;;;;6058862;23;20448;-91
2022/07/10 00:40:14;;;;;;;6.57;6.07;;;17.80;99.90;;;;;;6058853;23;20458;-91
2022/07/10 00:42:42;;;;;;;5.90;5.50;;;17.80;99.90;;;;;;6060876;23;20450;-90
2022/07/10 00:45:10;;;;;;;5.93;5.53;;;17.80;99.90;;;;;;6062564;23;20442;-92
2022/07/10 00:47:38;;;;;;;6.30;5.87;;;17.80;99.90;;;;;;6069856;23;20844;-91
2022/07/10 00:50:07;;;;;;;5.97;5.57;;;17.70;99.90;;;;;;6076948;23;20489;-90
2022/07/10 00:52:38;;;;;;;5.47;4.97;;;17.60;99.90;;;;;;6077171;23;20434;-91
2022/07/10 00:55:08;;;;;;;6.37;5.97;;;17.60;99.90;;;;;;6071408;23;20439;-91
2022/07/10 00:57:37;;;;;;;6.50;6.00;;;17.60;99.90;;;;;;6061880;23;21038;-90
2022/07/10 01:00:05;;;;;;;6.27;5.80;;;17.50;99.90;;;;;;6064439;23;20462;-91
2022/07/10 01:02:32;;;;;;;6.80;6.30;;;17.50;99.90;;;;;;6062543;23;20430;-92
2022/07/10 01:05:01;;;;;;;6.70;6.20;;;17.50;99.90;;;;;;6061670;23;20465;-91
2022/07/10 01:07:34;;;;;;;6.47;6.07;;;17.50;99.90;;;;;;6061030;23;20797;-92
2022/07/10 01:10:02;;;;;;;6.47;6.07;;;17.50;99.90;;;;;;6050327;23;20465;-91
2022/07/10 01:12:29;;;;;;;6.83;6.33;;;17.50;99.90;;;;;;6057167;23;20442;-91
2022/07/10 01:14:56;;;;;;;7.43;6.83;;;17.40;99.90;;;;;;6058266;23;20456;-92
2022/07/10 01:17:24;;;;;;;6.90;6.40;;;17.50;99.90;;;;;;6063905;23;20449;-90
2022/07/10 01:19:51;;;;;;;7.27;6.77;;;17.40;99.90;;;;;;6072776;23;20474;-92
2022/07/10 01:22:20;;;;;;;6.67;6.23;;;17.40;99.90;;;;;;6066560;23;20459;-91
2022/07/10 01:24:49;;;;;;;6.80;6.30;;;17.40;99.90;;;;;;6054904;23;20529;-91
2022/07/10 01:27:16;;;;;;;6.70;6.30;;;17.40;99.90;;;;;;6062645;23;20458;-92
2022/07/10 01:29:45;;;;;;;6.37;5.87;;;17.40;99.90;;;;;;6064123;23;20473;-92
2022/07/10 01:32:13;;;;;;;6.70;6.10;;;17.40;99.90;;;;;;6065133;23;20438;-93
2022/07/10 01:34:40;;;;;;;7.07;6.37;;;17.50;99.90;;;;;;6062675;23;20858;-91
2022/07/10 01:37:07;;;;;;;7.30;6.80;;;17.40;99.90;;;;;;6054216;23;20458;-92
2022/07/10 01:39:36;;;;;;;6.00;5.60;;;17.40;99.90;;;;;;6058073;23;21006;-91
2022/07/10 01:42:04;;;;;;;6.80;6.20;;;17.40;99.90;;;;;;6077792;23;20445;-91
2022/07/10 01:44:31;;;;;;;7.10;6.70;;;17.40;99.90;;;;;;6063434;23;20556;-92
2022/07/10 01:46:58;;;;;;;7.20;6.70;;;17.30;99.90;;;;;;6074827;23;20442;-92
2022/07/10 01:49:25;;;;;;;7.73;7.03;;;17.30;99.90;;;;;;6057814;23;20829;-92
2022/07/10 01:51:52;;;;;;;6.70;6.20;;;17.20;99.90;;;;;;6066410;23;20488;-92
2022/07/10 01:54:19;;;;;;;7.47;6.97;;;17.10;99.90;;;;;;6063939;23;20845;-92
2022/07/10 01:56:48;;;;;;;7.60;7.00;;;17.00;99.90;;;;;;6061992;23;20445;-92
2022/07/10 01:59:15;;;;;;;7.17;6.50;;;17.00;99.90;;;;;;6062391;23;21068;-90
2022/07/10 02:01:42;;;;;;;7.40;6.70;;;17.00;99.90;;;;;;6060217;23;20442;-93
2022/07/10 02:06:54;;;;;;;6.97;6.47;;;16.90;99.90;;;;;;6061745;23;20437;-92
2022/07/10 02:09:24;;;;;;;7.13;6.63;;;16.80;99.90;;;;;;6055570;23;20469;-92
2022/07/10 02:11:52;;;;;;;7.27;6.77;;;16.80;99.90;;;;;;6070925;23;20481;-91
2022/07/10 02:14:19;;;;;;;7.10;6.60;;;16.80;99.90;;;;;;6069352;23;20527;-92
2022/07/10 02:16:46;;;;;;;8.90;8.30;;;16.80;99.90;;;;;;6063892;23;20438;-91
2022/07/10 02:19:14;;;;;;;8.30;7.80;;;16.80;99.90;;;;;;6063254;23;20464;-92
2022/07/10 02:21:42;;;;;;;8.17;7.67;;;16.80;99.90;;;;;;6061681;23;20445;-92
2022/07/10 02:24:09;;;;;;;8.73;8.03;;;16.90;99.90;;;;;;6064019;23;20540;-91
2022/07/10 02:26:36;;;;;;;8.80;8.10;;;16.90;99.90;;;;;;6064665;23;20445;-93
2022/07/10 02:29:04;;;;;;;8.63;8.03;;;16.90;99.90;;;;;;6063810;23;20473;-93
2022/07/10 02:31:34;;;;;;;8.40;7.87;;;16.90;99.90;;;;;;6062828;23;20533;-93
2022/07/10 02:34:07;;;;;;;9.10;8.50;;;16.90;99.90;;;;;;6025423;23;20457;-92
2022/07/10 02:36:35;;;;;;;9.33;8.63;;;16.80;99.90;;;;;;6063927;23;20516;-92
2022/07/10 02:39:02;;;;;;;9.90;9.20;;;16.80;99.90;;;;;;6063631;23;20984;-92
2022/07/10 02:41:29;;;;;;;10.20;9.50;;;16.70;99.90;;;;;;6068647;23;20520;-92
2022/07/10 02:43:57;;;;;;;10.10;9.40;;;16.70;99.90;;;;;;6058645;23;20970;-92
2022/07/10 02:46:25;;;;;;;11.60;10.80;;;16.70;99.90;;;;;;6061623;23;20451;-92
2022/07/10 02:48:52;;;;;;;11.90;11.00;;;16.60;99.90;;;;;;6049309;23;20468;-93
2022/07/10 02:51:20;;;;;;;10.77;9.93;;;16.60;99.90;;;;;;6080765;23;20784;-93
2022/07/10 02:53:51;;;;;;;10.87;10.17;;;16.60;99.90;;;;;;6073629;23;20453;-92
2022/07/10 02:56:18;;;;;;;11.10;10.20;;;16.50;99.90;;;;;;6051770;23;20520;-91
2022/07/10 02:58:45;;;;;;;11.07;10.33;;;16.60;99.90;;;;;;6063710;23;20445;-91
2022/07/10 03:01:12;;;;;;;10.97;10.20;;;16.60;99.90;;;;;;6064041;23;20469;-91
2022/07/10 03:03:41;;;;;;;11.13;10.33;;;16.60;99.90;;;;;;6071602;23;20493;-84
2022/07/10 03:06:08;;;;;;;11.23;10.43;;;16.50;99.90;;;;;;6097762;23;20457;-85
2022/07/10 03:08:35;;;;;;;10.90;10.10;;;16.50;99.90;;;;;;6094496;23;20459;-84
2022/07/10 03:11:02;;;;;;;11.40;10.63;;;16.50;99.90;;;;;;6101118;23;20436;-84
2022/07/10 03:13:29;;;;;;;11.43;10.63;;;16.40;99.90;;;;;;6089235;23;20792;-84
2022/07/10 03:15:56;;;;;;;12.57;11.57;;;16.40;99.90;;;;;;6096492;23;20493;-84
2022/07/10 03:18:23;;;;;;;12.90;11.87;;;16.40;99.90;;;;;;6098599;23;20465;-84
2022/07/10 03:20:52;;;;;;;12.27;11.40;;;16.50;99.90;;;;;;6102291;23;20440;-84
2022/07/10 03:23:19;;;;;;;13.10;12.10;;;16.40;99.90;;;;;;6089283;23;20548;-84
2022/07/10 03:25:46;;;;;;;12.37;11.47;;;16.40;99.90;;;;;;6093571;23;20546;-84
2022/07/10 03:28:13;;;;;;;12.00;11.20;;;16.40;99.90;;;;;;6099443;23;20496;-84
2022/07/10 03:30:41;;;;;;;12.20;11.30;;;16.30;99.90;;;;;;6105600;23;20934;-84
2022/07/10 03:33:08;;;;;;;12.17;11.27;;;16.40;99.90;;;;;;6092002;23;20800;-84
2022/07/10 03:35:35;;;;;;;11.90;10.97;;;16.30;99.90;;;;;;6100857;23;20436;-84
2022/07/10 03:38:03;;;;;;;10.70;9.87;;;16.40;99.90;;;;;;6097341;23;20445;-84
2022/07/10 03:40:30;;;;;;;10.50;9.77;;;16.40;99.90;;;;;;6104790;23;20444;-84
2022/07/10 03:42:58;;;;;;;10.70;9.90;;;16.50;99.90;;;;;;6091914;23;21912;-84
2022/07/10 03:45:25;;;;;;;9.97;9.20;;;16.50;99.90;;;;;;6101870;23;20518;-84
2022/07/10 03:47:52;;;;;;;9.90;9.13;;;16.60;99.90;;;;;;6101257;23;20967;-84
2022/07/10 03:50:19;;;;;;;10.53;9.73;;;16.60;99.90;;;;;;6100151;23;20494;-84
2022/07/10 03:52:46;;;;;;;10.20;9.43;;;16.60;99.90;;;;;;6103489;23;20554;-84
2022/07/10 03:55:15;;;;;;;10.07;9.33;;;16.60;99.90;;;;;;6090809;23;20441;-84
2022/07/10 03:57:57;;;;;;;9.93;9.10;;;16.60;99.90;;;;;;6094156;23;20964;-84
2022/07/10 04:00:26;;;;;;;10.30;9.40;;;16.60;99.90;;;;;;6095772;23;20539;-84
2022/07/10 04:02:57;;;;;;;8.63;8.03;;;16.60;99.90;;;;;;6099021;23;20446;-85
2022/07/10 04:05:24;;;;;;;9.50;8.90;;;16.60;99.90;;;;;;6095880;23;20498;-84
2022/07/10 04:07:56;;;;;;;9.60;8.77;;;16.70;99.90;;;;;;6097408;23;20471;-84
2022/07/10 04:10:26;;;;;;;9.50;8.80;;;16.60;99.90;;;;;;6092812;23;20772;-84
2022/07/10 04:12:53;;;;;;;10.10;9.40;;;16.70;99.90;;;;;;6094909;23;20442;-85
2022/07/10 04:15:21;;;;;;;8.50;7.90;;;16.60;99.90;;;;;;6107263;23;20463;-84
2022/07/10 04:17:49;;;;;;;8.93;8.23;;;16.70;99.90;;;;;;6095573;23;20519;-84
2022/07/10 04:20:16;;;;;;;9.33;8.60;;;16.70;99.90;;;;;;6098964;23;20981;-84
2022/07/10 04:22:44;;;;;;;8.20;7.70;;;16.70;99.90;;;;;;6100922;23;20449;-84
2022/07/10 04:25:11;;;;;;;8.37;7.67;;;16.80;99.90;;;;;;6093867;23;20483;-84
2022/07/10 04:27:40;;;;;;;7.97;7.37;;;16.80;99.90;;;;;;6095397;23;22581;-85
2022/07/10 04:30:08;;;;;;;8.20;7.50;;;16.80;99.90;;;;;;6096686;23;20991;-85
2022/07/10 04:32:35;;;;;;;9.23;8.60;;;16.70;99.90;;;;;;6095464;23;20527;-84
2022/07/10 04:35:02;;;;;;;8.40;7.80;;;16.80;99.90;;;;;;6102105;23;20439;-84
2022/07/10 04:37:30;;;;;;;8.40;7.80;;;16.70;99.90;;;;;;6102251;23;20787;-84
2022/07/10 04:39:57;;;;;;;7.47;6.87;;;16.70;99.90;;;;;;6096540;23;20548;-84
2022/07/10 04:42:24;;;;;;;8.10;7.40;;;16.80;99.90;;;;;;6098302;23;20444;-84
2022/07/10 04:44:52;;;;;;;7.10;6.50;;;16.80;99.90;;;;;;6099626;23;20552;-84
2022/07/10 04:47:19;;;;;;;7.77;6.97;;;16.80;99.90;;;;;;6094492;23;20431;-85
2022/07/10 04:49:46;;;;;;;7.00;6.40;;;16.80;99.90;;;;;;6100274;23;20455;-84
2022/07/10 04:52:13;;;;;;;7.67;6.97;;;16.80;99.90;;;;;;6096413;23;20447;-84
2022/07/10 04:54:41;;;;;;;6.83;6.33;;;16.80;99.90;;;;;;6100539;23;20459;-84
2022/07/10 04:57:07;;;;;;;7.60;6.90;;;16.80;99.90;;;;;;6098561;23;20437;-84
2022/07/10 04:59:34;;;;;;;6.60;6.10;;;16.80;99.90;;;;;;6102399;23;20463;-84
2022/07/10 05:02:03;;;;;;;6.30;5.90;;;16.90;99.90;;;;;;6102892;23;20449;-84
2022/07/10 05:04:30;;;;;;;6.30;5.90;;;17.00;99.90;;;;;;6104003;23;20464;-84
2022/07/10 05:06:57;;;;;;;5.90;5.50;;;17.10;99.90;;;;;;6098409;23;20468;-85
2022/07/10 05:09:24;;;;;;;6.20;5.70;;;17.20;99.90;;;;;;6099197;23;20470;-85
2022/07/10 05:11:51;;;;;;;5.20;4.70;;;17.30;99.90;;;;;;6095945;23;20854;-85
2022/07/10 05:14:18;;;;;;;5.40;5.00;;;17.30;99.90;;;;;;6096009;23;20440;-85
2022/07/10 05:16:46;;;;;;;5.57;4.50;;;17.30;99.90;;;;;;6100489;23;20442;-84
2022/07/10 05:19:14;;;;;;;5.37;4.97;;;17.30;99.90;;;;;;6095669;23;20906;-84
2022/07/10 05:21:41;;;;;;;4.60;4.30;;;17.30;99.90;;;;;;6103695;23;20473;-85
2022/07/10 05:24:08;;;;;;;4.50;4.20;;;17.30;99.90;;;;;;6102424;23;20841;-85
2022/07/10 05:26:36;;;;;;;4.53;4.23;;;17.30;99.90;;;;;;6098860;23;20447;-85
2022/07/10 05:29:03;;;;;;;4.20;3.80;;;17.30;99.90;;;;;;6098056;23;20522;-85
2022/07/10 05:31:30;;;;;;;4.10;3.77;;;17.30;99.90;;;;;;6100431;23;20931;-85
2022/07/10 05:33:57;;;;;;;4.13;3.63;;;17.10;99.90;;;;;;6102152;23;20436;-85
2022/07/10 05:36:26;;;;;;;4.00;3.60;;;17.10;99.90;;;;;;6096303;23;20444;-85
2022/07/10 05:38:53;;;;;;;4.10;3.63;;;17.00;99.90;;;;;;6102716;23;20471;-84
2022/07/10 05:41:20;;;;;;;3.60;3.30;;;16.90;99.90;;;;;;6099493;23;20956;-85
2022/07/10 05:43:47;;;;;;;5.80;3.67;;;16.90;99.90;;;;;;6102922;23;20509;-86
2022/07/10 05:46:14;;;;;;;3.43;3.13;;;17.00;99.90;;;;;;6107426;23;20460;-85
2022/07/10 05:48:41;;;;;;;3.53;3.23;;;17.10;99.90;;;;;;6098320;23;21030;-85
2022/07/10 05:51:08;;;;;;;4.10;3.77;;;17.10;99.90;;;;;;6095747;23;20427;-85
2022/07/10 05:53:37;;;;;;;4.70;3.87;;;17.20;99.90;;;;;;6100396;23;20441;-85
2022/07/10 05:56:05;;;;;;;3.80;3.50;;;17.30;99.90;;;;;;6098326;23;20523;-85
2022/07/10 05:58:32;;;;;;;5.87;3.60;;;17.30;99.90;;;;;;6103070;23;20975;-85
2022/07/10 06:00:59;;;;;;;3.67;3.37;;;17.40;99.90;;;;;;6103247;23;20509;-85
2022/07/10 06:03:26;;;;;;;3.40;3.20;;;17.40;99.90;;;;;;6096024;23;20456;-85
2022/07/10 06:05:53;;;;;;;4.27;3.93;;;17.40;99.90;;;;;;6088860;23;20508;-85
2022/07/10 06:08:20;;;;;;;3.97;3.67;;;17.40;99.90;;;;;;6098815;23;20459;-85
2022/07/10 06:10:48;;;;;;;3.77;3.30;;;17.30;99.90;;;;;;6099759;23;20456;-85
2022/07/10 06:13:15;;;;;;;3.83;3.53;;;17.40;99.90;;;;;;6094652;23;20432;-85
2022/07/10 06:15:42;;;;;;;4.00;3.70;;;17.40;99.90;;;;;;6096958;23;20437;-85
2022/07/10 06:18:09;;;;;;;3.77;3.47;;;17.40;99.90;;;;;;6099724;23;20492;-85
2022/07/10 06:20:36;;;;;;;4.73;3.50;;;17.50;99.90;;;;;;6095973;23;20459;-84
2022/07/10 06:23:03;;;;;;;3.30;3.00;;;17.60;99.90;;;;;;6101442;23;20524;-85
2022/07/10 06:25:30;;;;;;;3.43;3.00;;;17.60;99.90;;;;;;6091732;23;20485;-86
2022/07/10 06:27:59;;;;;;;6.93;3.77;;;17.80;99.90;;;;;;6082410;23;20526;-86
2022/07/10 06:30:26;;;;;;;3.10;2.90;;;17.90;99.90;;;;;;6097958;23;20448;-87
2022/07/10 06:32:54;;;;;;;3.60;2.80;;;18.00;99.90;;;;;;6088350;23;20475;-87
2022/07/10 06:35:21;;;;;;;3.37;3.07;;;18.20;99.90;;;;;;6097504;23;20530;-87
2022/07/10 06:37:48;;;;;;;4.83;3.50;;;18.30;99.90;;;;;;6099740;23;20444;-87
2022/07/10 06:40:15;;;;;;;3.70;3.10;;;18.30;99.90;;;;;;6095182;23;20473;-85
2022/07/10 06:42:42;;;;;;;4.10;3.07;;;18.40;99.90;;;;;;6099731;23;20449;-87
2022/07/10 06:45:11;;;;;;;3.00;2.63;;;18.40;99.90;;;;;;6094212;23;20472;-86
2022/07/10 06:47:58;;;;;;;3.00;2.80;;;18.40;99.90;;;;;;6094569;23;20432;-86
2022/07/10 06:50:27;;;;;;;3.47;2.50;;;18.30;99.90;;;;;;6101055;23;20971;-90
2022/07/10 06:52:54;;;;;;;2.70;2.50;;;18.30;99.90;;;;;;6101472;23;20544;-86
2022/07/10 06:55:21;;;;;;;4.30;3.07;;;18.30;99.90;;;;;;6099702;23;20491;-86
2022/07/10 06:57:49;;;;;;;2.90;2.53;;;18.20;99.90;;;;;;6097293;23;20468;-87
2022/07/10 07:00:17;;;;;;;3.27;2.97;;;18.30;99.90;;;;;;6103690;23;20437;-87
2022/07/10 07:02:44;;;;;;;2.93;2.60;;;18.40;99.90;;;;;;6101230;23;20443;-86
2022/07/10 07:05:13;;;;;;;2.93;2.63;;;18.30;99.90;;;;;;6096220;23;20921;-86
2022/07/10 07:07:40;;;;;;;2.50;2.33;;;18.30;99.90;;;;;;6107017;23;20461;-86
2022/07/10 07:10:09;;;;;;;2.73;2.50;;;18.30;99.90;;;;;;6094713;23;20524;-86
2022/07/10 07:12:36;;;;;;;4.87;3.00;;;18.20;99.90;;;;;;6095913;23;20932;-87
2022/07/10 07:15:03;;;;;;;2.60;2.40;;;18.20;99.90;;;;;;6097712;23;20446;-86
2022/07/10 07:17:35;;;;;;;4.90;2.63;;;18.10;99.90;;;;;;6100897;23;20827;-87
2022/07/10 07:25:32;;;;;;;5.87;2.53;;;18.10;99.90;;;;;;6094800;23;20874;-87
2022/07/10 07:27:59;;;;;;;4.40;2.23;;;18.00;99.90;;;;;;6097013;23;20472;-87
2022/07/10 07:30:26;;;;;;;4.67;1.80;;;17.90;99.90;;;;;;6093995;23;20531;-89
2022/07/10 07:32:55;;;;;;;2.40;1.93;;;17.80;99.90;;;;;;6097795;23;20963;-88
2022/07/10 07:35:22;;;;;;;2.50;1.93;;;17.80;99.90;;;;;;6101496;23;20447;-91
2022/07/10 07:37:50;;;;;;;2.13;1.90;;;17.80;99.90;;;;;;6100675;23;20514;-90
2022/07/10 07:40:22;;;;;;;2.27;2.07;;;17.80;99.90;;;;;;6091857;23;20780;-88
2022/07/10 07:42:49;;;;;;;6.10;3.20;;;17.90;99.90;;;;;;6094656;23;20916;-89
2022/07/10 07:45:16;;;;;;;4.37;2.30;;;18.10;99.90;;;;;;6090695;23;20579;-89
2022/07/10 07:47:45;;;;;;;3.30;2.37;;;18.00;99.90;;;;;;6091916;23;20459;-82
2022/07/10 07:50:14;;;;;;;3.53;2.07;;;18.00;99.90;;;;;;6102700;23;20940;-81
2022/07/10 07:52:41;;;;;;;2.13;1.93;;;18.10;99.90;;;;;;6100677;23;20445;-81
2022/07/10 07:55:10;;;;;;;3.30;1.90;;;18.20;99.90;;;;;;6096659;23;20445;-81
2022/07/10 07:57:37;;;;;;;3.30;1.83;;;18.40;99.90;;;;;;6100665;23;20491;-81
2022/07/10 08:00:06;;;;;;;2.33;1.60;;;18.70;99.90;;;;;;6096554;23;20472;-80
2022/07/10 08:02:33;;;;;;;2.67;1.40;;;19.30;99.90;;;;;;6092786;23;20465;-81
2022/07/10 08:05:00;;;;;;;2.30;1.80;;;19.60;99.90;;;;;;6094452;23;20463;-81
2022/07/10 08:07:36;;;;;;;2.03;1.70;;;19.60;99.90;;;;;;6090773;23;20447;-82
2022/07/10 08:10:04;;;;;;;2.73;1.80;;;19.70;99.90;;;;;;6067598;23;20440;-81
2022/07/10 08:12:31;;;;;;;2.10;1.50;;;19.80;99.90;;;;;;6087026;23;20442;-82
2022/07/10 08:14:58;;;;;;;2.53;1.67;;;20.10;99.90;;;;;;6096012;23;20441;-82
2022/07/10 08:17:26;;;;;;;2.23;1.70;;;20.40;99.90;;;;;;6094631;23;20465;-81
2022/07/10 08:19:53;;;;;;;2.00;1.80;;;20.70;99.90;;;;;;6093177;23;20848;-81
2022/07/10 08:22:20;;;;;;;2.30;1.50;;;21.40;99.90;;;;;;6096553;23;20530;-81
2022/07/10 08:24:48;;;;;;;2.80;1.93;;;22.30;99.90;;;;;;6096356;23;20838;-81
2022/07/10 08:27:15;;;;;;;1.50;1.30;;;22.90;99.90;;;;;;6100717;23;20522;-81
2022/07/10 08:29:43;;;;;;;2.60;1.70;;;23.20;99.00;;;;;;6095350;23;20444;-81
2022/07/10 08:32:10;;;;;;;2.33;1.30;;;23.10;98.10;;;;;;6092472;23;20553;-81
2022/07/10 08:34:37;;;;;;;1.63;1.50;;;22.70;97.10;;;;;;6089551;23;20483;-81
2022/07/10 08:37:04;;;;;;;2.90;1.70;;;22.20;97.70;;;;;;6097547;23;20453;-80
2022/07/10 08:39:32;;;;;;;2.13;1.90;;;21.80;97.60;;;;;;6094153;23;20453;-80
2022/07/10 08:42:01;;;;;;;1.43;1.33;;;21.60;98.20;;;;;;6100055;23;20433;-80
2022/07/10 08:44:29;;;;;;;1.80;1.40;;;21.50;98.90;;;;;;6095634;23;20446;-80
2022/07/10 08:46:57;;;;;;;3.27;1.60;;;21.40;98.80;;;;;;6094539;23;20867;-81
2022/07/10 08:49:28;;;;;;;2.27;1.60;;;21.60;98.00;;;;;;6098600;23;20486;-81
2022/07/10 08:51:59;;;;;;;1.83;1.50;;;21.60;97.20;;;;;;6091998;23;20444;-81
2022/07/10 08:54:29;;;;;;;2.87;1.50;;;21.40;97.10;;;;;;6103907;23;20441;-80
2022/07/10 08:56:57;;;;;;;1.60;1.50;;;21.40;97.50;;;;;;6097929;23;20478;-80
2022/07/10 08:59:26;;;;;;;1.87;1.27;;;21.50;97.40;;;;;;6093551;23;20441;-81
2022/07/10 09:01:54;;;;;;;3.37;1.43;;;21.60;96.90;;;;;;6098600;23;20486;-81
2022/07/10 09:04:22;;;;;;;1.93;1.30;;;21.70;97.40;;;;;;6094983;23;20447;-81
2022/07/10 09:06:51;;;;;;;2.20;1.50;;;21.80;96.50;;;;;;6095676;23;20555;-82
2022/07/10 09:09:19;;;;;;;3.00;1.50;;;21.90;95.80;;;;;;6096703;23;20464;-82
2022/07/10 09:11:46;;;;;;;1.97;1.60;;;21.70;95.70;;;;;;6098333;23;20440;-80
2022/07/10 09:14:16;;;;;;;3.93;1.30;;;21.40;95.70;;;;;;6100477;23;20561;-80
2022/07/10 09:16:51;;;;;;;3.43;2.30;;;21.30;95.90;;;;;;6092007;23;20993;-80
2022/07/10 09:19:19;;;;;;;3.30;2.17;;;21.50;96.40;;;;;;6092196;23;20454;-80
2022/07/10 09:21:48;;;;;;;2.60;1.30;;;22.60;95.80;;;;;;6101996;23;20442;-80
2022/07/10 09:24:19;;;;;;;2.67;1.20;;;24.00;93.50;;;;;;6101795;23;20433;-80
2022/07/10 09:26:59;;;;;;;1.90;1.10;;;25.60;91.30;;;;;;6095503;23;20532;-81
2022/07/10 09:29:27;;;;;;;1.93;1.30;;;26.90;86.10;;;;;;6099117;23;21594;-80
2022/07/10 09:31:56;;;;;;;2.50;1.10;;;26.90;81.60;;;;;;6092203;23;20459;-81
2022/07/10 09:34:37;;;;;;;1.80;1.10;;;26.70;79.90;;;;;;6078127;23;20448;-92
2022/07/10 09:37:26;;;;;;;2.50;1.43;;;26.10;79.30;;;;;;6090509;23;20436;-86
2022/07/10 09:40:01;;;;;;;3.20;1.43;;;25.40;80.70;;;;;;6099120;23;20432;-84
2022/07/10 09:42:31;;;;;;;1.33;1.10;;;24.90;81.30;;;;;;6094579;23;20446;-84
2022/07/10 09:45:20;;;;;;;2.70;1.60;;;24.90;82.40;;;;;;6092972;23;20485;-84
2022/07/10 09:47:58;;;;;;;1.53;1.20;;;24.80;81.40;;;;;;6084173;23;20515;-84
2022/07/10 09:50:27;;;;;;;1.33;1.20;;;24.30;82.30;;;;;;6091932;23;20856;-84
2022/07/10 09:52:56;;;;;;;2.40;1.50;;;24.30;84.00;;;;;;6098169;23;20489;-85
2022/07/10 09:55:26;;;;;;;3.70;1.63;;;24.30;83.30;;;;;;6099193;23;20989;-85
2022/07/10 09:57:57;;;;;;;1.93;1.17;;;24.70;82.00;;;;;;6103054;23;20467;-85
2022/07/10 10:00:26;;;;;;;1.63;1.13;;;25.50;78.40;;;;;;6106418;23;20441;-85
2022/07/10 10:02:59;;;;;;;2.43;1.57;;;25.50;78.80;;;;;;6098653;23;20444;-85
2022/07/10 10:05:38;;;;;;;2.20;1.33;;;25.00;78.80;;;;;;6097742;23;20455;-85
2022/07/10 10:08:11;;;;;;;2.17;1.10;;;24.30;81.00;;;;;;6096784;23;20558;-85
2022/07/10 10:10:49;;;;;;;2.23;1.20;;;24.00;80.20;;;;;;6098860;23;20430;-85
2022/07/10 10:13:18;;;;;;;2.50;1.30;;;23.50;81.80;;;;;;6096867;23;20499;-86
2022/07/10 10:15:48;;;;;;;1.50;1.30;;;24.10;81.10;;;;;;6100440;23;20440;-85
2022/07/10 10:18:18;;;;;;;2.03;1.30;;;24.40;80.00;;;;;;6095058;23;20819;-84
2022/07/10 10:20:45;;;;;;;1.83;1.10;;;24.10;81.10;;;;;;6102439;23;20458;-84
2022/07/10 10:23:15;;;;;;;2.17;1.33;;;23.80;81.70;;;;;;6097350;23;20474;-86
2022/07/10 10:25:41;;;;;;;2.73;1.60;;;23.50;82.80;;;;;;6102786;23;20464;-84
2022/07/10 10:28:11;;;;;;;2.67;1.40;;;23.10;83.30;;;;;;6093201;23;20975;-80
2022/07/10 10:30:40;;;;;;;1.70;1.23;;;23.60;82.50;;;;;;6095790;23;20480;-83
2022/07/10 10:33:42;;;;;;;2.80;1.10;;;24.30;83.40;;;;;;6097608;23;20508;-83
2022/07/10 10:36:13;;;;;;;2.53;1.60;;;25.50;79.60;;;;;;6082924;23;20439;-85
2022/07/10 10:39:01;;;;;;;2.00;1.10;;;25.70;76.60;;;;;;6089396;23;20457;-84
2022/07/10 10:41:32;;;;;;;2.60;1.20;;;25.30;76.70;;;;;;6088007;23;20448;-84
2022/07/10 10:44:21;;;;;;;3.33;1.30;;;24.50;77.90;;;;;;6102395;23;20528;-83
2022/07/10 10:47:00;;;;;;;2.10;1.40;;;23.90;79.30;;;;;;6085870;23;20480;-84
2022/07/10 10:49:49;;;;;;;1.83;1.47;;;23.30;81.10;;;;;;6089656;23;20506;-84
2022/07/10 10:52:18;;;;;;;3.17;1.50;;;22.70;83.60;;;;;;6088348;23;20445;-84
2022/07/10 10:55:14;;;;;;;3.50;1.80;;;22.50;84.90;;;;;;6090265;23;21011;-84
2022/07/10 10:57:48;;;;;;;4.90;1.70;;;22.90;83.40;;;;;;6086752;23;20820;-84
2022/07/10 11:00:33;;;;;;;2.10;1.13;;;23.40;81.10;;;;;;6100364;23;20442;-84
2022/07/10 11:03:20;;;;;;;2.63;1.30;;;24.10;80.70;;;;;;6099320;23;20445;-85
2022/07/10 11:05:49;;;;;;;2.97;1.50;;;25.30;79.90;;;;;;6099060;23;20520;-85
2022/07/10 11:08:43;;;;;;;1.50;1.40;;;25.80;78.50;;;;;;6092721;23;21015;-84
2022/07/10 11:11:40;;;;;;;2.80;1.40;;;26.40;77.20;;;;;;6101722;23;20437;-83
2022/07/10 11:14:09;;;;;;;3.03;1.77;;;26.90;74.80;;;;;;6085879;23;20445;-83
2022/07/10 11:16:36;;;;;;;1.57;1.47;;;26.70;74.40;;;;;;6102127;23;20483;-82
2022/07/10 11:19:04;;;;;;;2.23;1.50;;;26.60;71.70;;;;;;6095187;23;20441;-84
2022/07/10 11:21:46;;;;;;;1.67;1.20;;;25.90;73.70;;;;;;6096880;23;20536;-87
2022/07/10 11:24:40;;;;;;;2.13;1.50;;;25.00;76.30;;;;;;6078403;23;20438;-94
2022/07/10 11:27:27;;;;;;;2.17;1.30;;;24.50;78.00;;;;;;6092179;23;20964;-83
2022/07/10 11:30:00;;;;;;;1.67;1.17;;;23.90;77.50;;;;;;6096974;23;20428;-84
2022/07/10 11:32:29;;;;;;;2.37;1.40;;;24.40;78.00;;;;;;6099426;23;20438;-83
2022/07/10 11:34:56;;;;;;;1.63;1.10;;;25.20;74.80;;;;;;6093112;23;20805;-84
2022/07/10 11:37:28;;;;;;;1.90;1.17;;;25.90;73.10;;;;;;6097359;23;20458;-84
2022/07/10 11:40:11;;;;;;;1.67;1.30;;;26.20;72.50;;;;;;6091535;23;20440;-84
2022/07/10 11:42:51;;;;;;;1.43;1.20;;;26.60;70.60;;;;;;6105055;23;20441;-84
2022/07/10 11:45:26;;;;;;;1.30;1.00;;;26.70;68.50;;;;;;6101146;23;20493;-82
2022/07/10 11:47:54;;;;;;;1.80;1.27;;;26.30;69.30;;;;;;6106957;22;20476;-94
2022/07/10 11:50:22;;;;;;;1.47;1.03;;;26.10;69.30;;;;;;6083930;23;21013;-95
2022/07/10 11:52:49;;;;;;;1.90;1.03;;;26.50;69.80;;;;;;6073534;23;20494;-94
2022/07/10 11:55:19;;;;;;;2.47;1.13;;;26.80;69.80;;;;;;6062001;23;20439;-95
2022/07/10 11:57:49;;;;;;;1.80;0.90;;;26.70;67.80;;;;;;6077786;23;20512;-94
2022/07/10 12:00:24;;;;;;;2.77;1.00;;;26.20;68.10;;;;;;6075607;23;20438;-94
2022/07/10 12:02:52;;;;;;;2.40;1.27;;;25.50;68.20;;;;;;6078599;23;20444;-94
2022/07/10 12:05:33;;;;;;;2.20;1.30;;;25.30;71.40;;;;;;6079859;23;20472;-94
2022/07/10 12:08:00;;;;;;;1.50;0.90;;;25.70;70.70;;;;;;6069540;23;20543;-95
2022/07/10 12:10:31;;;;;;;1.07;0.90;;;26.10;70.20;;;;;;6072653;23;20441;-95
2022/07/10 12:13:05;;;;;;;1.37;0.90;;;26.60;68.40;;;;;;6079247;23;20450;-94
2022/07/10 12:15:36;;;;;;;1.27;0.90;;;26.20;66.90;;;;;;6069958;23;20437;-95
2022/07/10 12:18:04;;;;;;;1.67;1.00;;;25.80;66.80;;;;;;6063070;23;21028;-94
2022/07/10 12:20:32;;;;;;;1.83;1.20;;;25.80;68.10;;;;;;6054495;23;20446;-95
2022/07/10 12:22:59;;;;;;;2.00;1.30;;;26.40;68.50;;;;;;6083391;23;20769;-95
2022/07/10 12:25:27;;;;;;;2.70;1.23;;;27.00;67.50;;;;;;6085731;23;21091;-95
2022/07/10 12:27:59;;;;;;;1.20;1.00;;;27.80;67.70;;;;;;6086961;23;20472;-95
2022/07/10 12:30:40;;;;;;;1.73;1.13;;;28.30;64.60;;;;;;6079197;23;20446;-94
2022/07/10 12:33:16;;;;;;;1.80;0.90;;;28.50;65.40;;;;;;6079327;23;20860;-95
2022/07/10 12:35:48;;;;;;;2.80;1.27;;;28.70;62.00;;;;;;6048482;23;20447;-94
2022/07/10 12:38:21;;;;;;;2.40;0.93;;;28.70;61.10;;;;;;6063028;23;20470;-94
2022/07/10 12:40:48;;;;;;;1.40;0.80;;;28.70;62.00;;;;;;6064550;23;20446;-94
2022/07/10 12:43:27;;;;;;;1.10;1.00;;;28.40;60.70;;;;;;6075589;23;20521;-95
2022/07/10 12:46:19;;;;;;;3.53;1.20;;;27.90;61.70;;;;;;6070023;23;20438;-82
2022/07/10 12:49:02;;;;;;;2.70;1.00;;;27.90;64.10;;;;;;6064650;23;20542;-90
2022/07/10 12:51:31;;;;;;;1.50;1.10;;;28.10;62.00;;;;;;6057607;23;20444;-89
2022/07/10 12:53:59;;;;;;;1.43;0.90;;;28.40;61.60;;;;;;6061003;23;20449;-88
2022/07/10 12:56:36;;;;;;;1.50;1.00;;;28.50;60.50;;;;;;6053913;23;20471;-88
2022/07/10 12:59:14;;;;;;;1.77;0.90;;;28.30;60.90;;;;;;6072100;23;20443;-93
2022/07/10 13:01:44;;;;;;;1.33;1.00;;;28.80;60.40;;;;;;6067868;23;20444;-95
2022/07/10 13:04:11;;;;;;;1.37;1.00;;;29.00;58.20;;;;;;6069026;23;20523;-93
2022/07/10 13:06:40;;;;;;;2.57;1.30;;;28.60;58.10;;;;;;6064554;23;20989;-94